Scf Baltica — A8IA5 — position and weather

sailwx.info

Track history (hours):
 
Tides and Currents Weather Stations Pressure Air Temp Water Temp Dewpoint Dewpoint Depression Visibility Wind Speed Wind Dir Waves Ship Positions

Scf Baltica

Last reported at 2014-Oct-20 04:12 UTC. Time now 2014-Oct-23 08:08 UTC.
Position N 59°37' E 023°16'.

Length 250 m; draft 14.3 m.

Type: Ship. MMSI: 636012813.

Date/timePositionNaut miles runAvg speedWind from/ knotsBaromVisibWave heightAir tempDewpointWater temp
2014-Oct-20 04:12N 59°37' E 023°16'812.1
2014-Oct-20 03:33N 59°39' E 023°30'1612.1
2014-Oct-20 02:14N 59°43' E 024°01'1012.2
2014-Oct-20 01:24N 59°46' E 024°20'1112.1
2014-Oct-20 00:31N 59°48' E 024°41'6012.1
2014-Oct-19 19:33N 60°01' E 026°37'1411.4
2014-Oct-19 18:21N 59°60' E 027°04'13 0.3
2014-Oct-18 00:33N 59°59' E 026°39'5112.7
2014-Oct-17 20:31N 59°47' E 024°60'1312.7
2014-Oct-17 19:30N 59°44' E 024°35'2512.7
2014-Oct-17 17:33N 59°37' E 023°48'36312.0
2014-Oct-16 11:24N 55°35' E 015°23'1112.9
2014-Oct-16 10:33N 55°30' E 015°06'1312.9
2014-Oct-16 09:33N 55°25' E 014°45'1312.8
2014-Oct-16 08:33N 55°15' E 014°29'1313.0
2014-Oct-16 07:33N 55°06' E 014°15'5213.0
2014-Oct-16 03:33N 54°46' E 012°51'1913.1
2014-Oct-16 02:08N 54°37' E 012°23'712.6
2014-Oct-16 01:33N 54°31' E 012°15'1211.5
2014-Oct-16 00:34N 54°24' E 011°59'140 9.1
2014-Oct-15 09:18N 56°44' E 011°51'811.3
2014-Oct-15 08:33N 56°52' E 011°48'1212.0
2014-Oct-15 07:33N 57°03' E 011°40'1212.1
2014-Oct-15 06:33N 57°15' E 011°33'1211.9
2014-Oct-15 05:33N 57°26' E 011°25'1211.7
2014-Oct-15 04:33N 57°35' E 011°10'1212.2
2014-Oct-15 03:33N 57°43' E 010°53'1111.2
2014-Oct-15 02:33N 57°47' E 010°34'1211.7
2014-Oct-15 01:33N 57°47' E 010°12'27211.3
2014-Oct-14 01:33N 54°14' E 005°08'1211.5
2014-Oct-14 00:31N 54°06' E 004°54'127 9.0
2014-Oct-13 10:19N 52°07' E 003°39'911.4
2014-Oct-13 09:33N 52°03' E 003°52'9 9.2
2014-Oct-13 08:33N 51°59' E 004°05'3 3.2
2014-Oct-13 07:31N 51°57' E 004°10'0 0.0
2014-Oct-13 06:31N 51°57' E 004°10'0 0.0
2014-Oct-13 05:31N 51°57' E 004°10'0 0.0
2014-Oct-13 04:31N 51°57' E 004°10'0 0.0
2014-Oct-13 03:31N 51°57' E 004°10'0 0.0
2014-Oct-13 02:31N 51°57' E 004°10'0 0.0
2014-Oct-13 01:28N 51°57' E 004°10'0 0.0
2014-Oct-13 00:28N 51°57' E 004°10'0 0.0
2014-Oct-12 23:28N 51°57' E 004°10'0 0.0
2014-Oct-12 22:31N 51°57' E 004°10'0 0.0
2014-Oct-12 21:22N 51°57' E 004°10'0 0.0
2014-Oct-12 20:28N 51°57' E 004°10'0 0.0
2014-Oct-12 19:13N 51°57' E 004°10'0 0.0
2014-Oct-12 18:31N 51°57' E 004°10'0 0.0
2014-Oct-12 17:31N 51°57' E 004°10'0 0.0
2014-Oct-12 16:31N 51°57' E 004°10'0 0.0
2014-Oct-12 15:19N 51°57' E 004°10'0 0.0
2014-Oct-12 14:28N 51°57' E 004°10'0 0.0
2014-Oct-12 13:31N 51°57' E 004°10'0 0.0
2014-Oct-12 12:28N 51°57' E 004°10'0 0.0
2014-Oct-12 11:28N 51°57' E 004°10'0 0.0
2014-Oct-12 10:19N 51°57' E 004°10'0 0.0
2014-Oct-12 09:31N 51°57' E 004°10'0 0.0
2014-Oct-12 08:31N 51°57' E 004°10'0 0.0
2014-Oct-12 07:31N 51°57' E 004°10'0 0.0
2014-Oct-12 06:31N 51°57' E 004°10'0 0.4
2014-Oct-12 05:33N 51°57' E 004°09'8 7.8
2014-Oct-12 04:33N 52°01' E 003°58'1010.2
2014-Oct-12 03:33N 52°03' E 003°42'  
Track history (hours):
 
Tides and Currents Weather Stations Pressure Air Temp Water Temp Dewpoint Dewpoint Depression Visibility Wind Speed Wind Dir Waves Ship Positions

Scf Baltica

Last reported at 2014-Oct-20 04:12 UTC. Time now 2014-Oct-23 08:08 UTC.
Position N 59°37' E 023°16'.

Length 250 m; draft 14.3 m.

Type: Ship. MMSI: 636012813.

Date/timePositionNaut miles runAvg speedWind from/ knotsBaromVisibWave heightAir tempDewpointWater temp
2014-Oct-20 04:12N 59°37' E 023°16'812.1
2014-Oct-20 03:33N 59°39' E 023°30'1612.1
2014-Oct-20 02:14N 59°43' E 024°01'1012.2
2014-Oct-20 01:24N 59°46' E 024°20'1112.1
2014-Oct-20 00:31N 59°48' E 024°41'6012.1
2014-Oct-19 19:33N 60°01' E 026°37'1411.4
2014-Oct-19 18:21N 59°60' E 027°04'13 0.3
2014-Oct-18 00:33N 59°59' E 026°39'5112.7
2014-Oct-17 20:31N 59°47' E 024°60'1312.7
2014-Oct-17 19:30N 59°44' E 024°35'2512.7
2014-Oct-17 17:33N 59°37' E 023°48'36312.0
2014-Oct-16 11:24N 55°35' E 015°23'1112.9
2014-Oct-16 10:33N 55°30' E 015°06'1312.9
2014-Oct-16 09:33N 55°25' E 014°45'1312.8
2014-Oct-16 08:33N 55°15' E 014°29'1313.0
2014-Oct-16 07:33N 55°06' E 014°15'5213.0
2014-Oct-16 03:33N 54°46' E 012°51'1913.1
2014-Oct-16 02:08N 54°37' E 012°23'712.6
2014-Oct-16 01:33N 54°31' E 012°15'1211.5
2014-Oct-16 00:34N 54°24' E 011°59'140 9.1
2014-Oct-15 09:18N 56°44' E 011°51'811.3
2014-Oct-15 08:33N 56°52' E 011°48'1212.0
2014-Oct-15 07:33N 57°03' E 011°40'1212.1
2014-Oct-15 06:33N 57°15' E 011°33'1211.9
2014-Oct-15 05:33N 57°26' E 011°25'1211.7
2014-Oct-15 04:33N 57°35' E 011°10'1212.2
2014-Oct-15 03:33N 57°43' E 010°53'1111.2
2014-Oct-15 02:33N 57°47' E 010°34'1211.7
2014-Oct-15 01:33N 57°47' E 010°12'27211.3
2014-Oct-14 01:33N 54°14' E 005°08'1211.5
2014-Oct-14 00:31N 54°06' E 004°54'127 9.0
2014-Oct-13 10:19N 52°07' E 003°39'911.4
2014-Oct-13 09:33N 52°03' E 003°52'9 9.2
2014-Oct-13 08:33N 51°59' E 004°05'3 3.2
2014-Oct-13 07:31N 51°57' E 004°10'0 0.0
2014-Oct-13 06:31N 51°57' E 004°10'0 0.0
2014-Oct-13 05:31N 51°57' E 004°10'0 0.0
2014-Oct-13 04:31N 51°57' E 004°10'0 0.0
2014-Oct-13 03:31N 51°57' E 004°10'0 0.0
2014-Oct-13 02:31N 51°57' E 004°10'0 0.0
2014-Oct-13 01:28N 51°57' E 004°10'0 0.0
2014-Oct-13 00:28N 51°57' E 004°10'0 0.0
2014-Oct-12 23:28N 51°57' E 004°10'0 0.0
2014-Oct-12 22:31N 51°57' E 004°10'0 0.0
2014-Oct-12 21:22N 51°57' E 004°10'0 0.0
2014-Oct-12 20:28N 51°57' E 004°10'0 0.0
2014-Oct-12 19:13N 51°57' E 004°10'0 0.0
2014-Oct-12 18:31N 51°57' E 004°10'0 0.0
2014-Oct-12 17:31N 51°57' E 004°10'0 0.0
2014-Oct-12 16:31N 51°57' E 004°10'0 0.0
2014-Oct-12 15:19N 51°57' E 004°10'0 0.0
2014-Oct-12 14:28N 51°57' E 004°10'0 0.0
2014-Oct-12 13:31N 51°57' E 004°10'0 0.0
2014-Oct-12 12:28N 51°57' E 004°10'0 0.0
2014-Oct-12 11:28N 51°57' E 004°10'0 0.0
2014-Oct-12 10:19N 51°57' E 004°10'0 0.0
2014-Oct-12 09:31N 51°57' E 004°10'0 0.0
2014-Oct-12 08:31N 51°57' E 004°10'0 0.0
2014-Oct-12 07:31N 51°57' E 004°10'0 0.0
2014-Oct-12 06:31N 51°57' E 004°10'0 0.4
2014-Oct-12 05:33N 51°57' E 004°09'8 7.8
2014-Oct-12 04:33N 52°01' E 003°58'1010.2
2014-Oct-12 03:33N 52°03' E 003°42'  

Dump ship's entire track history